sensor_id;sensor_type;location;lat;lon;timestamp;P1;durP1;ratioP1;P2;durP2;ratioP2
64834;SDS011;51293;59.296;18.006;2022-09-01T00:01:40;2.03;;;0.70;;
64834;SDS011;51293;59.296;18.006;2022-09-01T00:04:08;1.33;;;0.88;;
64834;SDS011;51293;59.296;18.006;2022-09-01T00:06:36;1.40;;;0.82;;
64834;SDS011;51293;59.296;18.006;2022-09-01T00:09:03;1.38;;;0.98;;
64834;SDS011;51293;59.296;18.006;2022-09-01T00:11:30;1.08;;;0.80;;
64834;SDS011;51293;59.296;18.006;2022-09-01T00:13:57;1.00;;;0.90;;
64834;SDS011;51293;59.296;18.006;2022-09-01T00:16:25;2.00;;;0.77;;
64834;SDS011;51293;59.296;18.006;2022-09-01T00:18:52;1.85;;;0.93;;
64834;SDS011;51293;59.296;18.006;2022-09-01T00:21:23;3.60;;;0.75;;
64834;SDS011;51293;59.296;18.006;2022-09-01T00:23:50;0.85;;;0.77;;
64834;SDS011;51293;59.296;18.006;2022-09-01T00:26:16;1.48;;;0.80;;
64834;SDS011;51293;59.296;18.006;2022-09-01T00:28:42;2.40;;;0.88;;
64834;SDS011;51293;59.296;18.006;2022-09-01T00:31:07;1.02;;;0.70;;
64834;SDS011;51293;59.296;18.006;2022-09-01T00:33:34;1.83;;;1.00;;
64834;SDS011;51293;59.296;18.006;2022-09-01T00:36:01;2.38;;;0.90;;
64834;SDS011;51293;59.296;18.006;2022-09-01T00:38:27;6.00;;;1.13;;
64834;SDS011;51293;59.296;18.006;2022-09-01T00:40:53;1.83;;;0.90;;
64834;SDS011;51293;59.296;18.006;2022-09-01T00:43:35;2.25;;;0.85;;
64834;SDS011;51293;59.296;18.006;2022-09-01T00:46:04;1.20;;;0.80;;
64834;SDS011;51293;59.296;18.006;2022-09-01T00:48:34;1.85;;;0.80;;
64834;SDS011;51293;59.296;18.006;2022-09-01T00:51:00;1.75;;;0.90;;
64834;SDS011;51293;59.296;18.006;2022-09-01T00:53:26;1.02;;;0.80;;
64834;SDS011;51293;59.296;18.006;2022-09-01T00:55:52;1.13;;;0.80;;
64834;SDS011;51293;59.296;18.006;2022-09-01T00:58:17;1.58;;;0.80;;
64834;SDS011;51293;59.296;18.006;2022-09-01T01:00:43;1.67;;;0.80;;
64834;SDS011;51293;59.296;18.006;2022-09-01T01:03:11;1.17;;;1.00;;
64834;SDS011;51293;59.296;18.006;2022-09-01T01:05:43;1.77;;;0.80;;
64834;SDS011;51293;59.296;18.006;2022-09-01T01:08:12;2.53;;;0.90;;
64834;SDS011;51293;59.296;18.006;2022-09-01T01:10:39;4.45;;;0.90;;
64834;SDS011;51293;59.296;18.006;2022-09-01T01:13:13;2.20;;;0.90;;
64834;SDS011;51293;59.296;18.006;2022-09-01T01:15:41;1.05;;;0.90;;
64834;SDS011;51293;59.296;18.006;2022-09-01T01:18:11;1.55;;;1.00;;
64834;SDS011;51293;59.296;18.006;2022-09-01T01:20:38;2.10;;;0.80;;
64834;SDS011;51293;59.296;18.006;2022-09-01T01:23:24;1.52;;;0.90;;
64834;SDS011;51293;59.296;18.006;2022-09-01T01:26:01;5.10;;;1.00;;
64834;SDS011;51293;59.296;18.006;2022-09-01T01:28:32;2.60;;;0.98;;
64834;SDS011;51293;59.296;18.006;2022-09-01T01:31:01;2.28;;;1.20;;
64834;SDS011;51293;59.296;18.006;2022-09-01T01:33:34;1.58;;;0.90;;
64834;SDS011;51293;59.296;18.006;2022-09-01T01:36:06;1.13;;;0.85;;
64834;SDS011;51293;59.296;18.006;2022-09-01T01:38:36;2.53;;;1.05;;
64834;SDS011;51293;59.296;18.006;2022-09-01T01:41:01;3.30;;;1.10;;
64834;SDS011;51293;59.296;18.006;2022-09-01T01:43:27;1.55;;;0.90;;
64834;SDS011;51293;59.296;18.006;2022-09-01T01:45:54;1.63;;;1.00;;
64834;SDS011;51293;59.296;18.006;2022-09-01T01:48:22;1.70;;;1.08;;
64834;SDS011;51293;59.296;18.006;2022-09-01T01:50:49;1.60;;;0.80;;
64834;SDS011;51293;59.296;18.006;2022-09-01T01:53:16;2.17;;;1.10;;
64834;SDS011;51293;59.296;18.006;2022-09-01T01:55:43;2.83;;;1.00;;
64834;SDS011;51293;59.296;18.006;2022-09-01T01:58:09;1.67;;;0.90;;
64834;SDS011;51293;59.296;18.006;2022-09-01T02:00:39;2.08;;;1.10;;
64834;SDS011;51293;59.296;18.006;2022-09-01T02:03:08;1.42;;;0.98;;
64834;SDS011;51293;59.296;18.006;2022-09-01T02:05:37;2.30;;;1.00;;
64834;SDS011;51293;59.296;18.006;2022-09-01T02:08:07;1.73;;;1.02;;
64834;SDS011;51293;59.296;18.006;2022-09-01T02:10:34;1.58;;;1.02;;
64834;SDS011;51293;59.296;18.006;2022-09-01T02:13:04;1.92;;;1.00;;
64834;SDS011;51293;59.296;18.006;2022-09-01T02:15:39;1.58;;;1.00;;
64834;SDS011;51293;59.296;18.006;2022-09-01T02:18:30;2.03;;;1.10;;
64834;SDS011;51293;59.296;18.006;2022-09-01T02:21:02;5.20;;;1.10;;
64834;SDS011;51293;59.296;18.006;2022-09-01T02:23:33;2.90;;;1.20;;
64834;SDS011;51293;59.296;18.006;2022-09-01T02:25:59;1.65;;;1.10;;
64834;SDS011;51293;59.296;18.006;2022-09-01T02:28:26;3.10;;;0.95;;
64834;SDS011;51293;59.296;18.006;2022-09-01T02:30:54;1.95;;;0.93;;
64834;SDS011;51293;59.296;18.006;2022-09-01T02:33:21;2.10;;;1.02;;
64834;SDS011;51293;59.296;18.006;2022-09-01T02:35:51;1.40;;;1.08;;
64834;SDS011;51293;59.296;18.006;2022-09-01T02:38:22;1.40;;;0.85;;
64834;SDS011;51293;59.296;18.006;2022-09-01T02:40:50;1.20;;;0.85;;
64834;SDS011;51293;59.296;18.006;2022-09-01T02:43:18;1.48;;;0.88;;
64834;SDS011;51293;59.296;18.006;2022-09-01T02:45:44;2.90;;;1.00;;
64834;SDS011;51293;59.296;18.006;2022-09-01T02:48:20;2.42;;;1.10;;
64834;SDS011;51293;59.296;18.006;2022-09-01T02:50:48;1.10;;;0.90;;
64834;SDS011;51293;59.296;18.006;2022-09-01T02:53:15;1.67;;;0.95;;
64834;SDS011;51293;59.296;18.006;2022-09-01T02:55:41;2.33;;;1.02;;
64834;SDS011;51293;59.296;18.006;2022-09-01T02:58:06;2.72;;;0.95;;
64834;SDS011;51293;59.296;18.006;2022-09-01T03:00:40;2.70;;;1.00;;
64834;SDS011;51293;59.296;18.006;2022-09-01T03:03:07;1.60;;;1.02;;
64834;SDS011;51293;59.296;18.006;2022-09-01T03:05:36;1.20;;;0.90;;
64834;SDS011;51293;59.296;18.006;2022-09-01T03:08:07;2.40;;;1.00;;
64834;SDS011;51293;59.296;18.006;2022-09-01T03:10:35;1.02;;;0.93;;
64834;SDS011;51293;59.296;18.006;2022-09-01T03:13:11;1.90;;;0.90;;
64834;SDS011;51293;59.296;18.006;2022-09-01T03:15:42;1.38;;;0.90;;
64834;SDS011;51293;59.296;18.006;2022-09-01T03:18:09;2.53;;;1.00;;
64834;SDS011;51293;59.296;18.006;2022-09-01T03:20:36;4.18;;;1.00;;
64834;SDS011;51293;59.296;18.006;2022-09-01T03:23:07;1.17;;;0.98;;
64834;SDS011;51293;59.296;18.006;2022-09-01T03:25:35;1.48;;;0.90;;
64834;SDS011;51293;59.296;18.006;2022-09-01T03:28:01;1.83;;;0.90;;
64834;SDS011;51293;59.296;18.006;2022-09-01T03:30:28;1.58;;;0.80;;
64834;SDS011;51293;59.296;18.006;2022-09-01T03:32:55;1.52;;;0.80;;
64834;SDS011;51293;59.296;18.006;2022-09-01T03:35:21;2.42;;;0.90;;
64834;SDS011;51293;59.296;18.006;2022-09-01T03:37:48;3.22;;;1.10;;
64834;SDS011;51293;59.296;18.006;2022-09-01T03:40:14;2.13;;;0.90;;
64834;SDS011;51293;59.296;18.006;2022-09-01T03:42:43;2.78;;;0.98;;
64834;SDS011;51293;59.296;18.006;2022-09-01T03:45:10;1.25;;;0.70;;
64834;SDS011;51293;59.296;18.006;2022-09-01T03:47:40;1.10;;;0.77;;
64834;SDS011;51293;59.296;18.006;2022-09-01T03:50:09;1.58;;;0.90;;
64834;SDS011;51293;59.296;18.006;2022-09-01T03:52:44;2.78;;;0.93;;
64834;SDS011;51293;59.296;18.006;2022-09-01T03:55:25;1.35;;;0.77;;
64834;SDS011;51293;59.296;18.006;2022-09-01T03:57:55;1.67;;;0.90;;
64834;SDS011;51293;59.296;18.006;2022-09-01T04:00:23;0.70;;;0.70;;
64834;SDS011;51293;59.296;18.006;2022-09-01T04:02:54;1.98;;;1.00;;
64834;SDS011;51293;59.296;18.006;2022-09-01T04:05:22;3.08;;;0.90;;
64834;SDS011;51293;59.296;18.006;2022-09-01T04:07:52;1.42;;;0.95;;
64834;SDS011;51293;59.296;18.006;2022-09-01T04:10:18;2.13;;;0.82;;
64834;SDS011;51293;59.296;18.006;2022-09-01T04:12:46;1.80;;;0.90;;
64834;SDS011;51293;59.296;18.006;2022-09-01T04:15:12;1.42;;;0.95;;
64834;SDS011;51293;59.296;18.006;2022-09-01T04:17:41;1.05;;;0.85;;
64834;SDS011;51293;59.296;18.006;2022-09-01T04:20:25;1.88;;;0.90;;
64834;SDS011;51293;59.296;18.006;2022-09-01T04:22:51;1.83;;;0.93;;
64834;SDS011;51293;59.296;18.006;2022-09-01T04:25:17;1.23;;;0.90;;
64834;SDS011;51293;59.296;18.006;2022-09-01T04:27:52;1.83;;;0.82;;
64834;SDS011;51293;59.296;18.006;2022-09-01T04:30:21;2.25;;;0.90;;
64834;SDS011;51293;59.296;18.006;2022-09-01T04:32:51;2.17;;;1.00;;
64834;SDS011;51293;59.296;18.006;2022-09-01T04:35:20;3.78;;;0.90;;
64834;SDS011;51293;59.296;18.006;2022-09-01T04:37:52;0.82;;;0.70;;
64834;SDS011;51293;59.296;18.006;2022-09-01T04:40:18;4.10;;;0.98;;
64834;SDS011;51293;59.296;18.006;2022-09-01T04:42:47;1.90;;;0.90;;
64834;SDS011;51293;59.296;18.006;2022-09-01T04:45:13;1.02;;;0.90;;
64834;SDS011;51293;59.296;18.006;2022-09-01T04:47:39;1.98;;;0.90;;
64834;SDS011;51293;59.296;18.006;2022-09-01T04:50:06;3.80;;;0.80;;
64834;SDS011;51293;59.296;18.006;2022-09-01T04:52:38;4.13;;;1.10;;
64834;SDS011;51293;59.296;18.006;2022-09-01T04:55:06;1.95;;;0.85;;
64834;SDS011;51293;59.296;18.006;2022-09-01T04:57:32;1.85;;;1.00;;
64834;SDS011;51293;59.296;18.006;2022-09-01T04:59:59;1.30;;;0.80;;
64834;SDS011;51293;59.296;18.006;2022-09-01T05:02:25;1.23;;;0.90;;
64834;SDS011;51293;59.296;18.006;2022-09-01T05:04:52;3.10;;;0.90;;
64834;SDS011;51293;59.296;18.006;2022-09-01T05:07:22;3.20;;;1.02;;
64834;SDS011;51293;59.296;18.006;2022-09-01T05:09:48;1.45;;;0.90;;
64834;SDS011;51293;59.296;18.006;2022-09-01T05:12:13;2.95;;;0.93;;
64834;SDS011;51293;59.296;18.006;2022-09-01T05:14:41;1.75;;;0.80;;
64834;SDS011;51293;59.296;18.006;2022-09-01T05:17:09;2.55;;;1.00;;
64834;SDS011;51293;59.296;18.006;2022-09-01T05:19:39;1.35;;;0.80;;
64834;SDS011;51293;59.296;18.006;2022-09-01T05:22:07;2.25;;;0.90;;
64834;SDS011;51293;59.296;18.006;2022-09-01T05:24:34;1.67;;;1.00;;
64834;SDS011;51293;59.296;18.006;2022-09-01T05:27:00;2.75;;;1.10;;
64834;SDS011;51293;59.296;18.006;2022-09-01T05:29:26;3.05;;;1.00;;
64834;SDS011;51293;59.296;18.006;2022-09-01T05:31:53;2.72;;;0.90;;
64834;SDS011;51293;59.296;18.006;2022-09-01T05:34:23;3.33;;;1.45;;
64834;SDS011;51293;59.296;18.006;2022-09-01T05:36:54;1.85;;;0.95;;
64834;SDS011;51293;59.296;18.006;2022-09-01T05:39:21;2.42;;;1.20;;
64834;SDS011;51293;59.296;18.006;2022-09-01T05:41:51;2.80;;;1.20;;
64834;SDS011;51293;59.296;18.006;2022-09-01T05:44:17;3.63;;;1.00;;
64834;SDS011;51293;59.296;18.006;2022-09-01T05:46:46;4.93;;;1.30;;
64834;SDS011;51293;59.296;18.006;2022-09-01T05:49:13;3.97;;;1.00;;
64834;SDS011;51293;59.296;18.006;2022-09-01T05:51:44;1.95;;;1.00;;
64834;SDS011;51293;59.296;18.006;2022-09-01T05:54:14;3.00;;;1.17;;
64834;SDS011;51293;59.296;18.006;2022-09-01T05:56:41;3.35;;;1.00;;
64834;SDS011;51293;59.296;18.006;2022-09-01T05:59:07;1.80;;;0.90;;
64834;SDS011;51293;59.296;18.006;2022-09-01T06:01:34;2.80;;;1.08;;
64834;SDS011;51293;59.296;18.006;2022-09-01T06:04:02;4.97;;;1.00;;
64834;SDS011;51293;59.296;18.006;2022-09-01T06:06:42;3.15;;;0.98;;
64834;SDS011;51293;59.296;18.006;2022-09-01T06:09:10;2.85;;;0.95;;
64834;SDS011;51293;59.296;18.006;2022-09-01T06:11:38;2.42;;;1.00;;
64834;SDS011;51293;59.296;18.006;2022-09-01T06:14:06;3.63;;;1.00;;
64834;SDS011;51293;59.296;18.006;2022-09-01T06:16:33;2.75;;;1.20;;
64834;SDS011;51293;59.296;18.006;2022-09-01T06:19:00;1.95;;;0.85;;
64834;SDS011;51293;59.296;18.006;2022-09-01T06:21:26;1.10;;;0.93;;
64834;SDS011;51293;59.296;18.006;2022-09-01T06:23:53;1.52;;;0.90;;
64834;SDS011;51293;59.296;18.006;2022-09-01T06:26:24;2.53;;;0.80;;
64834;SDS011;51293;59.296;18.006;2022-09-01T06:28:55;1.13;;;0.80;;
64834;SDS011;51293;59.296;18.006;2022-09-01T06:31:25;2.15;;;0.85;;
64834;SDS011;51293;59.296;18.006;2022-09-01T06:33:54;3.20;;;1.10;;
64834;SDS011;51293;59.296;18.006;2022-09-01T06:36:20;1.50;;;0.70;;
64834;SDS011;51293;59.296;18.006;2022-09-01T06:38:47;2.70;;;0.90;;
64834;SDS011;51293;59.296;18.006;2022-09-01T06:41:15;3.30;;;1.00;;
64834;SDS011;51293;59.296;18.006;2022-09-01T06:43:44;2.47;;;0.90;;
64834;SDS011;51293;59.296;18.006;2022-09-01T06:46:13;4.90;;;0.98;;
64834;SDS011;51293;59.296;18.006;2022-09-01T06:48:40;6.88;;;1.00;;
64834;SDS011;51293;59.296;18.006;2022-09-01T06:51:11;1.92;;;0.80;;
64834;SDS011;51293;59.296;18.006;2022-09-01T06:53:38;3.97;;;0.80;;
64834;SDS011;51293;59.296;18.006;2022-09-01T06:56:04;1.88;;;0.73;;
64834;SDS011;51293;59.296;18.006;2022-09-01T06:58:30;0.90;;;0.80;;
64834;SDS011;51293;59.296;18.006;2022-09-01T07:00:56;4.93;;;0.70;;
64834;SDS011;51293;59.296;18.006;2022-09-01T07:03:21;2.45;;;0.80;;
64834;SDS011;51293;59.296;18.006;2022-09-01T07:05:47;2.05;;;0.70;;
64834;SDS011;51293;59.296;18.006;2022-09-01T07:08:15;2.30;;;0.80;;
64834;SDS011;51293;59.296;18.006;2022-09-01T07:10:47;2.65;;;0.85;;
64834;SDS011;51293;59.296;18.006;2022-09-01T07:13:15;2.55;;;0.80;;
64834;SDS011;51293;59.296;18.006;2022-09-01T07:15:46;0.60;;;0.60;;
64834;SDS011;51293;59.296;18.006;2022-09-01T07:18:18;3.40;;;1.20;;
64834;SDS011;51293;59.296;18.006;2022-09-01T07:20:47;4.63;;;0.90;;
64834;SDS011;51293;59.296;18.006;2022-09-01T07:23:13;1.17;;;0.90;;
64834;SDS011;51293;59.296;18.006;2022-09-01T07:25:41;2.58;;;0.95;;
64834;SDS011;51293;59.296;18.006;2022-09-01T07:28:10;3.35;;;1.00;;
64834;SDS011;51293;59.296;18.006;2022-09-01T07:30:42;3.55;;;1.17;;
64834;SDS011;51293;59.296;18.006;2022-09-01T07:33:09;1.67;;;0.70;;
64834;SDS011;51293;59.296;18.006;2022-09-01T07:35:37;2.08;;;0.70;;
64834;SDS011;51293;59.296;18.006;2022-09-01T07:38:04;3.42;;;0.70;;
64834;SDS011;51293;59.296;18.006;2022-09-01T07:40:33;1.60;;;0.82;;
64834;SDS011;51293;59.296;18.006;2022-09-01T07:43:02;0.98;;;0.70;;
64834;SDS011;51293;59.296;18.006;2022-09-01T07:45:33;2.28;;;1.10;;
64834;SDS011;51293;59.296;18.006;2022-09-01T07:48:02;3.33;;;1.20;;
64834;SDS011;51293;59.296;18.006;2022-09-01T07:50:30;2.00;;;0.90;;
64834;SDS011;51293;59.296;18.006;2022-09-01T07:52:56;2.65;;;0.65;;
64834;SDS011;51293;59.296;18.006;2022-09-01T07:55:22;1.50;;;0.77;;
64834;SDS011;51293;59.296;18.006;2022-09-01T07:57:47;1.40;;;0.68;;
64834;SDS011;51293;59.296;18.006;2022-09-01T08:00:13;1.40;;;0.60;;
64834;SDS011;51293;59.296;18.006;2022-09-01T08:02:40;1.67;;;0.70;;
64834;SDS011;51293;59.296;18.006;2022-09-01T08:05:09;0.85;;;0.70;;
64834;SDS011;51293;59.296;18.006;2022-09-01T08:07:35;2.13;;;0.57;;
64834;SDS011;51293;59.296;18.006;2022-09-01T08:10:02;3.67;;;1.10;;
64834;SDS011;51293;59.296;18.006;2022-09-01T08:12:29;1.05;;;0.70;;
64834;SDS011;51293;59.296;18.006;2022-09-01T08:14:55;0.70;;;0.70;;
64834;SDS011;51293;59.296;18.006;2022-09-01T08:17:20;1.40;;;0.93;;
64834;SDS011;51293;59.296;18.006;2022-09-01T08:19:45;0.50;;;0.47;;
64834;SDS011;51293;59.296;18.006;2022-09-01T08:22:11;4.75;;;1.23;;
64834;SDS011;51293;59.296;18.006;2022-09-01T08:24:37;1.10;;;0.77;;
64834;SDS011;51293;59.296;18.006;2022-09-01T08:27:03;4.80;;;1.40;;
64834;SDS011;51293;59.296;18.006;2022-09-01T08:29:28;6.43;;;1.75;;
64834;SDS011;51293;59.296;18.006;2022-09-01T08:31:54;3.00;;;1.13;;
64834;SDS011;51293;59.296;18.006;2022-09-01T08:34:19;2.78;;;0.80;;
64834;SDS011;51293;59.296;18.006;2022-09-01T08:36:45;2.53;;;0.60;;
64834;SDS011;51293;59.296;18.006;2022-09-01T08:39:10;3.92;;;1.00;;
64834;SDS011;51293;59.296;18.006;2022-09-01T08:41:42;1.35;;;0.70;;
64834;SDS011;51293;59.296;18.006;2022-09-01T08:47:02;6.57;;;0.80;;
64834;SDS011;51293;59.296;18.006;2022-09-01T08:49:34;4.85;;;0.90;;
64834;SDS011;51293;59.296;18.006;2022-09-01T08:52:07;5.18;;;0.70;;
64834;SDS011;51293;59.296;18.006;2022-09-01T08:59:48;4.72;;;0.80;;
64834;SDS011;51293;59.296;18.006;2022-09-01T09:10:55;3.00;;;0.82;;
64834;SDS011;51293;59.296;18.006;2022-09-01T09:16:17;3.50;;;1.70;;
64834;SDS011;51293;59.296;18.006;2022-09-01T09:18:49;2.53;;;1.10;;
64834;SDS011;51293;59.296;18.006;2022-09-01T09:21:55;4.82;;;0.90;;
64834;SDS011;51293;59.296;18.006;2022-09-01T09:24:23;1.63;;;0.55;;
64834;SDS011;51293;59.296;18.006;2022-09-01T09:26:54;2.58;;;0.60;;
64834;SDS011;51293;59.296;18.006;2022-09-01T09:29:23;1.13;;;0.60;;
64834;SDS011;51293;59.296;18.006;2022-09-01T09:31:59;2.15;;;0.60;;
64834;SDS011;51293;59.296;18.006;2022-09-01T09:34:34;3.80;;;0.90;;
64834;SDS011;51293;59.296;18.006;2022-09-01T09:40:01;1.58;;;0.50;;
64834;SDS011;51293;59.296;18.006;2022-09-01T09:42:36;0.73;;;0.50;;
64834;SDS011;51293;59.296;18.006;2022-09-01T09:45:37;1.23;;;0.70;;
64834;SDS011;51293;59.296;18.006;2022-09-01T09:48:37;1.27;;;0.77;;
64834;SDS011;51293;59.296;18.006;2022-09-01T09:51:18;0.70;;;0.70;;
64834;SDS011;51293;59.296;18.006;2022-09-01T09:53:46;2.45;;;0.82;;
64834;SDS011;51293;59.296;18.006;2022-09-01T09:58:42;4.60;;;0.85;;
64834;SDS011;51293;59.296;18.006;2022-09-01T10:01:26;2.40;;;0.80;;
64834;SDS011;51293;59.296;18.006;2022-09-01T10:09:48;2.42;;;0.65;;
64834;SDS011;51293;59.296;18.006;2022-09-01T10:11:58;1.55;;;0.75;;
64834;SDS011;51293;59.296;18.006;2022-09-01T10:14:40;1.65;;;0.80;;
64834;SDS011;51293;59.296;18.006;2022-09-01T10:17:13;7.97;;;0.80;;
64834;SDS011;51293;59.296;18.006;2022-09-01T10:19:44;1.45;;;0.70;;
64834;SDS011;51293;59.296;18.006;2022-09-01T10:22:16;1.27;;;0.50;;
64834;SDS011;51293;59.296;18.006;2022-09-01T10:24:42;1.75;;;0.73;;
64834;SDS011;51293;59.296;18.006;2022-09-01T10:32:33;2.72;;;0.75;;
64834;SDS011;51293;59.296;18.006;2022-09-01T10:35:04;2.58;;;0.80;;
64834;SDS011;51293;59.296;18.006;2022-09-01T10:37:31;5.15;;;1.00;;
64834;SDS011;51293;59.296;18.006;2022-09-01T10:40:58;3.22;;;1.00;;
64834;SDS011;51293;59.296;18.006;2022-09-01T10:43:00;4.70;;;1.10;;
64834;SDS011;51293;59.296;18.006;2022-09-01T10:46:08;2.67;;;0.70;;
64834;SDS011;51293;59.296;18.006;2022-09-01T10:48:55;1.70;;;1.00;;
64834;SDS011;51293;59.296;18.006;2022-09-01T10:53:51;1.73;;;1.00;;
64834;SDS011;51293;59.296;18.006;2022-09-01T11:04:11;1.52;;;0.40;;
64834;SDS011;51293;59.296;18.006;2022-09-01T11:09:06;0.70;;;0.50;;
64834;SDS011;51293;59.296;18.006;2022-09-01T11:11:53;1.02;;;0.43;;
64834;SDS011;51293;59.296;18.006;2022-09-01T11:14:27;2.35;;;0.38;;
64834;SDS011;51293;59.296;18.006;2022-09-01T11:32:45;0.40;;;0.30;;
64834;SDS011;51293;59.296;18.006;2022-09-01T11:35:19;1.35;;;0.40;;
64834;SDS011;51293;59.296;18.006;2022-09-01T11:37:47;0.68;;;0.30;;
64834;SDS011;51293;59.296;18.006;2022-09-01T11:40:18;0.30;;;0.30;;
64834;SDS011;51293;59.296;18.006;2022-09-01T11:42:50;0.88;;;0.45;;
64834;SDS011;51293;59.296;18.006;2022-09-01T11:45:22;0.60;;;0.40;;
64834;SDS011;51293;59.296;18.006;2022-09-01T11:47:53;0.38;;;0.25;;
64834;SDS011;51293;59.296;18.006;2022-09-01T11:50:30;1.10;;;0.40;;
64834;SDS011;51293;59.296;18.006;2022-09-01T11:52:58;0.40;;;0.30;;
64834;SDS011;51293;59.296;18.006;2022-09-01T11:58:01;0.30;;;0.20;;
64834;SDS011;51293;59.296;18.006;2022-09-01T12:00:30;0.47;;;0.30;;
64834;SDS011;51293;59.296;18.006;2022-09-01T12:02:57;0.82;;;0.30;;
64834;SDS011;51293;59.296;18.006;2022-09-01T12:07:57;2.97;;;0.50;;
64834;SDS011;51293;59.296;18.006;2022-09-01T12:15:29;0.30;;;0.20;;
64834;SDS011;51293;59.296;18.006;2022-09-01T12:18:43;0.15;;;0.13;;
64834;SDS011;51293;59.296;18.006;2022-09-01T12:20:52;0.50;;;0.20;;
64834;SDS011;51293;59.296;18.006;2022-09-01T12:25:53;1.40;;;0.20;;
64834;SDS011;51293;59.296;18.006;2022-09-01T12:28:25;0.43;;;0.30;;
64834;SDS011;51293;59.296;18.006;2022-09-01T12:30:58;0.98;;;0.30;;
64834;SDS011;51293;59.296;18.006;2022-09-01T12:33:25;0.20;;;0.20;;
64834;SDS011;51293;59.296;18.006;2022-09-01T12:36:11;3.13;;;0.30;;
64834;SDS011;51293;59.296;18.006;2022-09-01T12:38:51;0.75;;;0.30;;
64834;SDS011;51293;59.296;18.006;2022-09-01T12:41:22;0.47;;;0.22;;
64834;SDS011;51293;59.296;18.006;2022-09-01T12:47:08;0.77;;;0.22;;
64834;SDS011;51293;59.296;18.006;2022-09-01T12:49:37;1.70;;;0.28;;
64834;SDS011;51293;59.296;18.006;2022-09-01T12:54:50;0.57;;;0.30;;
64834;SDS011;51293;59.296;18.006;2022-09-01T13:00:17;0.55;;;0.25;;
64834;SDS011;51293;59.296;18.006;2022-09-01T13:05:24;0.28;;;0.22;;
64834;SDS011;51293;59.296;18.006;2022-09-01T13:07:53;1.70;;;0.70;;
64834;SDS011;51293;59.296;18.006;2022-09-01T13:10:20;0.80;;;0.25;;
64834;SDS011;51293;59.296;18.006;2022-09-01T13:12:49;0.68;;;0.28;;
64834;SDS011;51293;59.296;18.006;2022-09-01T13:15:15;0.90;;;0.50;;
64834;SDS011;51293;59.296;18.006;2022-09-01T13:17:41;0.70;;;0.35;;
64834;SDS011;51293;59.296;18.006;2022-09-01T13:20:08;0.30;;;0.28;;
64834;SDS011;51293;59.296;18.006;2022-09-01T13:22:36;5.43;;;0.60;;
64834;SDS011;51293;59.296;18.006;2022-09-01T13:25:02;1.83;;;0.50;;
64834;SDS011;51293;59.296;18.006;2022-09-01T13:27:28;1.55;;;0.30;;
64834;SDS011;51293;59.296;18.006;2022-09-01T13:29:54;1.65;;;0.63;;
64834;SDS011;51293;59.296;18.006;2022-09-01T13:32:20;3.45;;;0.50;;
64834;SDS011;51293;59.296;18.006;2022-09-01T13:34:47;1.50;;;0.32;;
64834;SDS011;51293;59.296;18.006;2022-09-01T13:37:13;0.20;;;0.20;;
64834;SDS011;51293;59.296;18.006;2022-09-01T13:39:38;0.47;;;0.20;;
64834;SDS011;51293;59.296;18.006;2022-09-01T13:42:04;0.47;;;0.40;;
64834;SDS011;51293;59.296;18.006;2022-09-01T13:44:29;1.95;;;0.30;;
64834;SDS011;51293;59.296;18.006;2022-09-01T13:46:55;0.70;;;0.32;;
64834;SDS011;51293;59.296;18.006;2022-09-01T13:49:20;0.55;;;0.43;;
64834;SDS011;51293;59.296;18.006;2022-09-01T13:51:52;1.30;;;0.50;;
64834;SDS011;51293;59.296;18.006;2022-09-01T13:54:18;1.67;;;0.47;;
64834;SDS011;51293;59.296;18.006;2022-09-01T13:56:43;1.13;;;0.68;;
64834;SDS011;51293;59.296;18.006;2022-09-01T13:59:09;0.98;;;0.40;;
64834;SDS011;51293;59.296;18.006;2022-09-01T14:01:34;0.82;;;0.40;;
64834;SDS011;51293;59.296;18.006;2022-09-01T14:04:00;1.98;;;0.50;;
64834;SDS011;51293;59.296;18.006;2022-09-01T14:06:28;2.38;;;0.50;;
64834;SDS011;51293;59.296;18.006;2022-09-01T14:08:53;1.33;;;0.70;;
64834;SDS011;51293;59.296;18.006;2022-09-01T14:11:19;1.13;;;0.77;;
64834;SDS011;51293;59.296;18.006;2022-09-01T14:13:45;1.23;;;0.52;;
64834;SDS011;51293;59.296;18.006;2022-09-01T14:16:11;1.73;;;0.52;;
64834;SDS011;51293;59.296;18.006;2022-09-01T14:18:38;1.50;;;0.50;;
64834;SDS011;51293;59.296;18.006;2022-09-01T14:21:04;3.78;;;0.63;;
64834;SDS011;51293;59.296;18.006;2022-09-01T14:23:35;2.03;;;0.40;;
64834;SDS011;51293;59.296;18.006;2022-09-01T14:26:00;3.50;;;0.52;;
64834;SDS011;51293;59.296;18.006;2022-09-01T14:28:26;1.73;;;0.40;;
64834;SDS011;51293;59.296;18.006;2022-09-01T14:30:51;1.08;;;0.68;;
64834;SDS011;51293;59.296;18.006;2022-09-01T14:33:17;3.17;;;0.60;;
64834;SDS011;51293;59.296;18.006;2022-09-01T14:35:45;1.38;;;0.55;;
64834;SDS011;51293;59.296;18.006;2022-09-01T14:38:12;4.18;;;0.60;;
64834;SDS011;51293;59.296;18.006;2022-09-01T14:40:39;3.47;;;0.80;;
64834;SDS011;51293;59.296;18.006;2022-09-01T14:43:05;2.38;;;0.40;;
64834;SDS011;51293;59.296;18.006;2022-09-01T14:45:33;3.63;;;0.70;;
64834;SDS011;51293;59.296;18.006;2022-09-01T14:48:01;1.38;;;0.60;;
64834;SDS011;51293;59.296;18.006;2022-09-01T14:50:27;4.25;;;0.60;;
64834;SDS011;51293;59.296;18.006;2022-09-01T14:52:56;0.55;;;0.40;;
64834;SDS011;51293;59.296;18.006;2022-09-01T14:55:22;1.58;;;0.40;;
64834;SDS011;51293;59.296;18.006;2022-09-01T14:57:49;1.75;;;0.35;;
64834;SDS011;51293;59.296;18.006;2022-09-01T15:00:16;2.75;;;0.57;;
64834;SDS011;51293;59.296;18.006;2022-09-01T15:02:42;2.47;;;0.60;;
64834;SDS011;51293;59.296;18.006;2022-09-01T15:05:08;3.38;;;0.70;;
64834;SDS011;51293;59.296;18.006;2022-09-01T15:07:35;2.50;;;0.55;;
64834;SDS011;51293;59.296;18.006;2022-09-01T15:10:01;2.33;;;0.70;;
64834;SDS011;51293;59.296;18.006;2022-09-01T15:12:28;4.93;;;0.80;;
64834;SDS011;51293;59.296;18.006;2022-09-01T15:14:55;2.85;;;0.70;;
64834;SDS011;51293;59.296;18.006;2022-09-01T15:17:21;2.55;;;0.70;;
64834;SDS011;51293;59.296;18.006;2022-09-01T15:19:47;1.25;;;0.45;;
64834;SDS011;51293;59.296;18.006;2022-09-01T15:22:13;1.05;;;0.50;;
64834;SDS011;51293;59.296;18.006;2022-09-01T15:24:40;1.65;;;0.55;;
64834;SDS011;51293;59.296;18.006;2022-09-01T15:27:06;0.93;;;0.65;;
64834;SDS011;51293;59.296;18.006;2022-09-01T15:29:31;0.45;;;0.40;;
64834;SDS011;51293;59.296;18.006;2022-09-01T15:31:58;2.75;;;0.68;;
64834;SDS011;51293;59.296;18.006;2022-09-01T15:34:25;1.23;;;0.50;;
64834;SDS011;51293;59.296;18.006;2022-09-01T15:36:51;1.05;;;0.70;;
64834;SDS011;51293;59.296;18.006;2022-09-01T15:39:17;0.57;;;0.40;;
64834;SDS011;51293;59.296;18.006;2022-09-01T15:41:43;0.55;;;0.40;;
64834;SDS011;51293;59.296;18.006;2022-09-01T15:44:09;1.25;;;0.50;;
64834;SDS011;51293;59.296;18.006;2022-09-01T15:46:35;2.28;;;0.60;;
64834;SDS011;51293;59.296;18.006;2022-09-01T15:49:04;0.98;;;0.52;;
64834;SDS011;51293;59.296;18.006;2022-09-01T15:53:59;0.57;;;0.50;;
64834;SDS011;51293;59.296;18.006;2022-09-01T15:56:32;0.45;;;0.40;;
64834;SDS011;51293;59.296;18.006;2022-09-01T15:59:02;1.02;;;0.50;;
64834;SDS011;51293;59.296;18.006;2022-09-01T16:01:31;1.02;;;0.43;;
64834;SDS011;51293;59.296;18.006;2022-09-01T16:03:58;1.63;;;0.57;;
64834;SDS011;51293;59.296;18.006;2022-09-01T16:06:25;1.45;;;0.55;;
64834;SDS011;51293;59.296;18.006;2022-09-01T16:08:51;3.28;;;0.50;;
64834;SDS011;51293;59.296;18.006;2022-09-01T16:11:18;1.75;;;0.57;;
64834;SDS011;51293;59.296;18.006;2022-09-01T16:13:45;1.25;;;0.40;;
64834;SDS011;51293;59.296;18.006;2022-09-01T16:18:58;0.63;;;0.60;;